Latest Weather Observations for Redland (Alexandra Hills)

IDQ60901

Issued at 11:31 pm EST Saturday 25 February 2017 (issued every 10 minutes, with the page automatically refreshed every 10 minutes)

About weather observations | Map of Brisbane area stations | Latest observations for Brisbane area | Other Formats
Station Details ID: 140007 Name: REDLAND (ALEXANDRA HILLS) Lat: -27.54 Lon: 153.24 Height: 50.53 m
Data from the previous 72 hours. | See also: Recent months at Redland (Alexandra Hills)
Date/Time
EST
Temp
°C
App
Temp
°C
Dew
Point
°C
Rel
Hum
%
Delta-T
°C
Wind Press
QNH
hPa
Press
MSL
hPa
Rain since
9am
mm
Dir  Spd
km/h
Gust
km/h
Spd
kts
Gust
kts
25/11:00pm 22.1 22.0 16.1 69 3.6 S 11 15 6 8 - - 0.0
25/10:30pm 22.3 22.6 16.1 68 3.8 S 9 15 5 8 - - 0.0
25/10:00pm 22.7 22.4 16.5 68 3.8 S 13 20 7 11 - - 0.0
25/09:30pm 22.9 22.9 16.2 66 4.1 S 11 22 6 12 - - 0.0
25/09:00pm 23.5 23.2 16.5 65 4.3 SSE 13 24 7 13 - - 0.0
25/08:30pm 23.7 23.2 17.0 66 4.1 SSE 15 30 8 16 - - 0.0
25/08:00pm 24.2 23.1 17.4 65 4.2 SE 19 33 10 18 - - 0.0
25/07:30pm 24.4 23.4 17.9 67 4.1 SE 20 39 11 21 - - 0.0
25/07:00pm 24.5 23.7 18.0 67 4.1 SE 19 39 10 21 - - 0.0
25/06:30pm 24.8 23.3 17.8 65 4.4 SE 22 41 12 22 - - 0.0
25/06:00pm 25.2 24.1 17.7 63 4.7 SE 20 39 11 21 - - 0.0
25/05:30pm 26.1 24.8 17.2 58 5.6 SE 20 37 11 20 - - 0.0
25/05:00pm 26.4 24.7 17.2 57 5.8 SE 22 37 12 20 - - 0.0
25/04:30pm 26.8 25.7 17.3 56 6.0 SE 19 37 10 20 - - 0.0
25/04:00pm 27.3 25.8 17.8 56 6.0 ESE 22 39 12 21 - - 0.0
25/03:30pm 27.4 25.9 17.8 55 6.1 SE 22 39 12 21 - - 0.0
25/03:00pm 28.2 27.5 18.6 56 6.2 SE 20 39 11 21 - - 0.0
25/02:30pm 29.4 29.0 18.8 53 6.9 SE 19 33 10 18 - - 0.0
25/02:00pm 29.2 28.4 17.1 48 7.6 ESE 17 35 9 19 - - 0.0
25/01:30pm 30.0 28.7 15.7 42 8.9 SE 17 30 9 16 - - 0.0
25/01:00pm 30.0 28.0 14.9 39 9.2 SE 19 33 10 18 - - 0.0
25/12:30pm 30.0 28.8 14.1 37 9.6 SE 13 26 7 14 - - 0.0
25/12:00pm 28.9 27.3 15.1 43 8.4 SE 17 28 9 15 - - 0.0
25/11:30am 29.5 28.7 16.0 44 8.4 ESE 15 32 8 17 - - 0.0
25/11:00am 29.1 28.3 16.0 45 8.1 SE 15 26 8 14 - - 0.0
25/10:30am 28.8 27.6 16.0 45 7.9 ESE 17 28 9 15 - - 0.0
25/10:00am 28.3 27.5 15.2 44 8.0 SSE 13 24 7 13 - - 0.0
25/09:30am 27.0 26.3 15.4 49 7.1 SE 13 22 7 12 - - 0.0
25/09:00am 26.6 25.8 16.2 52 6.4 SSE 15 24 8 13 - - 0.0
25/08:30am 25.9 25.2 16.5 56 5.8 SSW 15 24 8 13 - - 0.0
25/08:00am 24.9 24.5 16.3 59 5.3 S 13 22 7 12 - - 0.0
25/07:30am 23.5 23.1 16.1 63 4.5 S 13 19 7 10 - - 0.0
25/07:00am 21.5 22.7 17.3 77 2.6 SSW 7 11 4 6 - - 0.0
25/06:30am 19.7 20.7 16.9 84 1.7 SW 7 11 4 6 - - 0.0
25/06:00am 18.8 19.7 16.6 87 1.3 SW 7 9 4 5 - - 0.0
25/05:30am 19.0 19.8 16.4 85 1.6 SW 7 11 4 6 - - 0.0
25/05:00am 19.4 20.2 16.4 83 1.8 SW 7 9 4 5 - - 0.0
25/04:30am 20.1 21.0 16.7 81 2.1 SSW 7 11 4 6 - - 0.0
25/04:00am 20.1 20.7 16.7 81 2.1 S 9 11 5 6 - - 0.0
25/03:30am 20.1 20.7 16.9 82 1.9 SSW 9 13 5 7 - - 0.0
25/03:00am 20.1 21.1 16.9 82 1.9 SSW 7 9 4 5 - - 0.0
25/02:30am 20.5 21.6 17.1 81 2.1 SSW 7 11 4 6 - - 0.0
25/02:00am 20.9 22.0 17.1 79 2.3 S 7 13 4 7 - - 0.0
25/01:30am 21.3 22.1 17.3 78 2.5 S 9 15 5 8 - - 0.0
25/01:00am 21.0 22.3 17.6 81 2.1 SSE 7 11 4 6 - - 0.0
25/12:30am 20.2 21.4 17.4 84 1.7 SSW 7 11 4 6 - - 0.0
25/12:00am 20.5 21.8 17.5 83 1.8 S 7 7 4 4 - - 0.0
 
Date/Time
EST
Temp
°C
App
Temp
°C
Dew
Point
°C
Rel
Hum
%
Delta-T
°C
Wind Press
QNH
hPa
Press
MSL
hPa
Rain since
9am
mm
Dir  Spd
km/h
Gust
km/h
Spd
kts
Gust
kts
24/11:30pm 20.4 21.8 17.4 83 1.8 SE 6 6 3 3 - - 0.0
24/11:00pm 21.5 23.3 17.5 78 2.5 SE 4 6 2 3 - - 0.0
24/10:30pm 22.3 24.1 17.4 74 3.0 ESE 4 6 2 3 - - 0.0
24/10:00pm 23.0 24.9 17.7 72 3.3 ESE 4 9 2 5 - - 0.0
24/09:30pm 23.3 24.8 17.7 71 3.5 ESE 6 11 3 6 - - 0.0
24/09:00pm 23.6 25.1 18.0 71 3.5 ESE 7 13 4 7 - - 0.0
24/08:30pm 23.9 25.8 18.5 72 3.4 SE 6 11 3 6 - - 0.0
24/08:00pm 24.0 25.9 18.6 72 3.4 SE 6 9 3 5 - - 0.0
24/07:30pm 24.3 25.8 18.9 72 3.4 SE 9 17 5 9 - - 0.0
24/07:00pm 24.4 25.8 18.6 70 3.7 ESE 9 20 5 11 - - 0.0
24/06:30pm 24.6 25.7 18.1 67 4.1 ESE 9 20 5 11 - - 0.0
24/06:00pm 25.2 25.4 17.7 63 4.7 ESE 13 24 7 13 - - 0.0
24/05:30pm 25.9 25.7 17.5 59 5.3 ESE 15 26 8 14 - - 0.0
24/05:00pm 26.7 26.3 17.2 56 5.9 ESE 15 26 8 14 - - 0.0
24/04:30pm 27.5 27.7 17.7 55 6.2 ESE 13 24 7 13 - - 0.0
24/04:00pm 28.1 27.9 16.7 50 7.1 E 13 26 7 14 - - 0.0
24/03:30pm 28.4 28.3 17.0 50 7.2 E 13 28 7 15 - - 0.0
24/03:00pm 28.6 28.3 16.5 48 7.5 E 13 22 7 12 - - 0.0
24/02:30pm 28.9 28.5 17.1 49 7.4 E 15 24 8 13 - - 0.0
24/02:00pm 29.4 29.7 16.9 47 7.9 E 11 20 6 11 - - 0.0
24/01:30pm 29.3 29.0 16.5 46 8.0 SE 13 22 7 12 - - 0.0
24/01:00pm 29.3 29.1 16.8 47 7.8 ESE 13 24 7 13 - - 0.0
24/12:30pm 29.0 29.4 17.2 49 7.4 ESE 11 20 6 11 - - 0.0
24/12:00pm 29.0 28.7 16.5 46 7.8 E 13 24 7 13 - - 0.0
24/11:30am 29.6 30.6 17.8 49 7.5 ESE 9 20 5 11 - - 0.0
24/11:00am 28.8 29.6 17.3 49 7.3 SE 9 17 5 9 - - 0.0
24/10:30am 28.0 29.0 17.8 54 6.5 ESE 9 20 5 11 - - 0.0
24/10:00am 28.4 28.7 17.0 50 7.2 SE 11 24 6 13 - - 0.0
24/09:30am 27.7 28.2 17.5 53 6.4 SE 11 20 6 11 - - 0.0
24/09:00am 27.0 27.6 17.8 57 5.8 SSE 11 19 6 10 - - 0.0
24/08:30am 26.2 27.0 18.1 61 5.1 SSE 11 20 6 11 - - 0.0
24/08:00am 25.1 25.7 17.8 64 4.6 SSE 11 19 6 10 - - 0.0
24/07:30am 23.7 24.1 17.2 67 4.0 S 11 20 6 11 - - 0.0
24/07:00am 22.3 23.7 17.9 76 2.7 SSW 7 11 4 6 - - 0.0
24/06:30am 20.1 21.3 17.3 84 1.7 SSW 7 9 4 5 - - 0.0
24/06:00am 18.8 20.0 16.8 88 1.2 SW 6 9 3 5 - - 0.0
24/05:30am 18.9 20.0 16.7 87 1.3 SW 6 7 3 4 - - 0.0
24/05:00am 19.1 20.6 16.7 86 1.4 SSW 4 6 2 3 - - 0.0
24/04:30am 20.1 21.4 17.1 83 1.8 SW 6 7 3 4 - - 0.0
24/04:00am 20.8 22.1 17.6 82 2.0 SSW 7 9 4 5 - - 0.0
24/03:30am 20.5 21.3 17.3 82 2.0 S 9 9 5 5 - - 0.0
24/03:00am 21.0 22.2 17.4 80 2.2 S 7 11 4 6 - - 0.0
24/02:30am 20.8 21.6 17.4 81 2.1 S 9 13 5 7 - - 0.0
24/02:00am 21.1 22.3 17.3 79 2.3 S 7 11 4 6 - - 0.0
24/01:30am 21.2 22.0 17.4 79 2.3 SSW 9 11 5 6 - - 0.0
24/01:00am 20.7 21.8 17.1 80 2.2 SSW 7 9 4 5 - - 0.0
24/12:30am 20.9 21.7 17.3 80 2.2 S 9 13 5 7 - - 0.0
24/12:00am 21.0 21.8 17.4 80 2.2 S 9 13 5 7 - - 0.0
 
Date/Time
EST
Temp
°C
App
Temp
°C
Dew
Point
°C
Rel
Hum
%
Delta-T
°C
Wind Press
QNH
hPa
Press
MSL
hPa
Rain since
9am
mm
Dir  Spd
km/h
Gust
km/h
Spd
kts
Gust
kts
23/11:30pm 21.1 22.1 17.7 81 2.1 S 9 13 5 7 - - 0.0
23/11:00pm 21.4 22.4 17.8 80 2.2 S 9 11 5 6 - - 0.0
23/10:30pm 21.9 23.4 17.7 77 2.6 SSW 6 7 3 4 - - 0.0
23/10:00pm 23.0 24.5 17.5 71 3.4 SSE 6 9 3 5 - - 0.0
23/09:30pm 23.6 24.8 18.3 72 3.3 SSE 9 15 5 8 - - 0.0
23/09:00pm 23.7 25.4 18.4 72 3.3 SE 7 17 4 9 - - 0.0
23/08:30pm 24.0 25.4 18.6 72 3.4 SE 9 20 5 11 - - 0.0
23/08:00pm 24.0 25.9 18.9 73 3.2 SE 7 19 4 10 - - 0.0
23/07:30pm 24.2 26.0 18.8 72 3.4 SE 7 17 4 9 - - 0.0
23/07:00pm 24.4 25.6 19.0 72 3.4 SE 11 26 6 14 - - 0.0
23/06:30pm 24.6 24.8 18.5 69 3.9 SE 15 28 8 15 - - 0.0
23/06:00pm 25.2 25.2 18.2 65 4.4 ESE 15 26 8 14 - - 0.0
23/05:30pm 25.9 25.1 18.1 62 4.9 ESE 19 33 10 18 - - 0.0
23/05:00pm 26.6 26.3 18.2 60 5.3 ESE 17 30 9 16 - - 0.0
23/04:30pm 27.1 26.7 18.1 58 5.7 ESE 17 30 9 16 - - 0.0
23/04:00pm 27.1 25.9 17.6 56 6.0 ESE 20 33 11 18 - - 0.0
23/03:30pm 27.9 27.9 18.0 55 6.3 ESE 15 28 8 15 - - 0.0
23/03:00pm 28.5 28.0 17.7 52 6.9 ESE 17 30 9 16 - - 0.0
23/02:30pm 28.3 27.3 16.6 49 7.3 SE 17 32 9 17 - - 0.0
23/02:00pm 28.7 28.2 17.9 52 6.9 ESE 17 30 9 16 - - 0.0
23/01:30pm 29.0 29.1 17.5 49 7.3 SE 13 24 7 13 - - 0.0
23/01:00pm 28.7 28.1 16.6 48 7.6 ESE 15 30 8 16 - - 0.0
23/12:30pm 28.8 28.6 16.7 48 7.6 SE 13 26 7 14 - - 0.0
23/12:00pm 28.4 28.4 17.3 51 7.0 SE 13 30 7 16 - - 0.0
23/11:30am 28.6 28.3 16.5 48 7.5 ESE 13 30 7 16 - - 0.0
23/11:00am 28.6 28.7 16.5 48 7.5 SE 11 22 6 12 - - 0.0
23/10:30am 28.2 27.5 15.5 46 7.8 SE 13 28 7 15 - - 0.0
23/10:00am 28.0 27.2 15.0 45 7.9 SSE 13 22 7 12 - - 0.0
23/09:30am 27.4 26.2 15.1 47 7.5 SSE 15 28 8 15 - - 0.0
23/09:00am 27.0 25.8 14.1 45 7.7 SE 13 24 7 13 - - 0.0
23/08:30am 25.8 24.7 15.2 52 6.4 S 15 28 8 15 - - 0.0
23/08:00am 25.2 24.4 15.2 54 6.0 SSE 13 24 7 13 - - 0.0
23/07:30am 23.7 22.9 15.2 59 5.1 S 13 24 7 13 - - 0.0
23/07:00am 22.9 22.8 16.0 65 4.2 SSE 11 20 6 11 - - 0.0
23/06:30am 21.1 21.4 16.1 73 3.0 S 9 11 5 6 - - 0.0
23/06:00am 19.9 20.5 15.7 77 2.5 SSW 7 11 4 6 - - 0.0
23/05:30am 19.9 20.4 15.5 76 2.6 S 7 9 4 5 - - 0.0
23/05:00am 20.3 20.8 15.5 74 2.9 S 7 9 4 5 - - 0.0
23/04:30am 20.7 21.2 15.5 72 3.1 S 7 9 4 5 - - 0.0
23/04:00am 21.4 22.0 15.7 70 3.4 S 7 11 4 6 - - 0.0
23/03:30am 21.8 22.1 15.9 69 3.6 S 9 15 5 8 - - 0.0
23/03:00am 22.4 22.8 16.2 68 3.8 S 9 17 5 9 - - 0.0
23/02:30am 22.5 22.9 16.3 68 3.8 S 9 15 5 8 - - 0.0
23/02:00am 22.5 23.0 16.5 69 3.7 S 9 17 5 9 - - 0.0
23/01:30am 22.2 23.1 16.7 71 3.4 SSW 7 9 4 5 - - 0.0
23/01:00am 22.1 23.2 16.6 71 3.4 SSW 6 7 3 4 - - 0.0
23/12:30am 22.5 23.4 16.5 69 3.7 SSW 7 11 4 6 - - 0.0
23/12:00am 22.8 23.7 16.1 66 4.1 SSW 6 7 3 4 - - 0.0

Latest Capital City Observations: Canberra | Sydney | Melbourne | Brisbane | Adelaide | Perth | Hobart | Darwin

Other Formats:

Comma delimited format used in spreadsheet applications
http://www.bom.gov.au/fwo/IDQ60901/IDQ60901.94561.axf

JavaScript Object Notation format (JSON) in row-major order
http://www.bom.gov.au/fwo/IDQ60901/IDQ60901.94561.json